createdAt,value
2022-12-01T00:01:59.201Z,98.27
2022-12-01T00:05:01.348Z,98.18
2022-12-01T00:08:05.267Z,98.60
2022-12-01T00:11:14.830Z,98.75
2022-12-01T00:14:16.887Z,98.63
2022-12-01T00:17:18.947Z,98.89
2022-12-01T00:20:21.267Z,98.70
2022-12-01T00:23:23.804Z,98.79
2022-12-01T00:26:27.331Z,98.96
2022-12-01T00:29:29.412Z,99.15
2022-12-01T00:32:31.710Z,98.75
2022-12-01T00:35:33.803Z,98.66
2022-12-01T00:38:36.083Z,98.58
2022-12-01T00:41:38.114Z,98.56
2022-12-01T00:44:40.255Z,98.43
2022-12-01T00:47:42.302Z,98.66
2022-12-01T00:50:44.971Z,98.75
2022-12-01T00:53:47.022Z,98.57
2022-12-01T00:56:49.011Z,98.88
2022-12-01T00:59:51.108Z,98.48
2022-12-01T01:02:53.277Z,98.31
2022-12-01T01:05:55.479Z,98.98
2022-12-01T01:08:57.637Z,98.68
2022-12-01T01:11:59.757Z,98.50
2022-12-01T01:15:02.908Z,98.83
2022-12-01T01:18:05.968Z,98.84
2022-12-01T01:21:11.817Z,99.07
2022-12-01T01:24:13.935Z,99.28
2022-12-01T01:27:15.989Z,99.15
2022-12-01T01:30:18.693Z,98.86
2022-12-01T01:33:20.698Z,99.32
2022-12-01T01:36:23.482Z,98.94
2022-12-01T01:39:25.508Z,99.28
2022-12-01T01:42:27.571Z,99.31
2022-12-01T01:45:30.125Z,98.90
2022-12-01T01:48:34.375Z,99.42
2022-12-01T01:51:45.301Z,99.30
2022-12-01T01:54:51.341Z,98.87
2022-12-01T01:57:53.489Z,99.01
2022-12-01T02:00:55.667Z,99.06
2022-12-01T02:03:58.765Z,98.76
2022-12-01T02:07:01.028Z,98.84
2022-12-01T02:10:06.023Z,98.85
2022-12-01T02:13:30.277Z,99.30
2022-12-01T02:17:02.235Z,99.38
2022-12-01T02:20:16.620Z,99.44
2022-12-01T02:23:39.985Z,99.54
2022-12-01T02:26:51.126Z,99.63
2022-12-01T02:29:56.277Z,99.74
2022-12-01T02:33:09.448Z,99.87
2022-12-01T02:36:28.506Z,100.00
2022-12-01T02:39:30.659Z,100.00
2022-12-01T02:42:52.381Z,100.00
2022-12-01T02:46:00.936Z,100.00
2022-12-01T02:49:10.119Z,100.00
2022-12-01T02:52:14.300Z,100.00
2022-12-01T02:55:16.385Z,100.00
2022-12-01T02:58:19.028Z,100.00
2022-12-01T03:01:32.995Z,100.00
2022-12-01T03:04:39.447Z,100.00
2022-12-01T03:08:01.970Z,100.00
2022-12-01T03:11:04.248Z,100.00
2022-12-01T03:14:26.022Z,100.00
2022-12-01T03:18:11.483Z,100.00
2022-12-01T03:21:25.740Z,100.00
2022-12-01T03:24:33.143Z,99.92
2022-12-01T03:27:41.785Z,100.00
2022-12-01T03:30:57.366Z,99.91
2022-12-01T03:34:05.181Z,99.82
2022-12-01T03:37:18.211Z,99.96
2022-12-01T03:40:27.385Z,100.00
2022-12-01T03:43:35.337Z,100.00
2022-12-01T03:46:50.349Z,99.64
2022-12-01T03:49:54.149Z,99.61
2022-12-01T03:53:21.793Z,99.89
2022-12-01T03:56:26.677Z,99.76
2022-12-01T03:59:30.295Z,99.77
2022-12-01T04:02:32.700Z,99.81
2022-12-01T04:05:35.486Z,99.64
2022-12-01T04:08:37.995Z,100.00
2022-12-01T04:11:58.637Z,99.70
2022-12-01T04:15:10.380Z,99.65
2022-12-01T04:18:12.426Z,99.76
2022-12-01T04:21:14.431Z,100.00
2022-12-01T04:24:16.535Z,99.82
2022-12-01T04:27:19.459Z,99.89
2022-12-01T04:30:21.488Z,100.00
2022-12-01T04:33:23.554Z,99.50
2022-12-01T04:36:26.980Z,99.81
2022-12-01T04:39:29.046Z,99.46
2022-12-01T04:42:31.163Z,99.76
2022-12-01T04:45:33.181Z,99.59
2022-12-01T04:48:36.677Z,99.94
2022-12-01T04:51:38.865Z,99.89
2022-12-01T04:54:40.893Z,99.99
2022-12-01T04:57:42.939Z,100.00
2022-12-01T05:00:45.256Z,100.00
2022-12-01T05:03:51.673Z,100.00
2022-12-01T05:06:55.663Z,100.00
2022-12-01T05:09:58.342Z,100.00
2022-12-01T05:13:00.668Z,100.00
2022-12-01T05:16:08.374Z,100.00
2022-12-01T05:19:29.234Z,100.00
2022-12-01T05:22:57.217Z,100.00
2022-12-01T05:25:53.545Z,100.00
2022-12-01T05:28:55.703Z,100.00
2022-12-01T05:31:57.768Z,99.80
2022-12-01T05:34:59.867Z,99.98
2022-12-01T05:38:07.501Z,100.00
2022-12-01T05:41:11.160Z,99.97
2022-12-01T05:44:13.193Z,100.00
2022-12-01T05:47:15.256Z,99.95
2022-12-01T05:50:17.420Z,99.96
2022-12-01T05:53:20.222Z,100.00
2022-12-01T05:56:22.250Z,100.00
2022-12-01T05:59:24.436Z,100.00
2022-12-01T06:02:29.500Z,100.00
2022-12-01T06:05:32.079Z,100.00
2022-12-01T06:08:34.119Z,100.00
2022-12-01T06:11:36.263Z,99.72
2022-12-01T06:14:38.457Z,99.82
2022-12-01T06:17:40.954Z,99.94
2022-12-01T06:20:43.004Z,99.55
2022-12-01T06:23:45.122Z,99.74
2022-12-01T06:26:47.290Z,99.72
2022-12-01T06:29:49.993Z,99.92
2022-12-01T06:32:52.502Z,99.87
2022-12-01T06:36:01.739Z,99.97
2022-12-01T06:39:10.303Z,99.66
2022-12-01T06:42:12.542Z,100.00
2022-12-01T06:45:14.896Z,99.80
2022-12-01T06:48:16.961Z,100.00
2022-12-01T06:51:19.097Z,99.70
2022-12-01T06:54:21.577Z,100.00
2022-12-01T06:57:23.679Z,99.96
2022-12-01T07:00:26.163Z,99.54
2022-12-01T07:03:28.232Z,99.29
2022-12-01T07:06:31.522Z,99.27
2022-12-01T07:09:34.245Z,99.04
2022-12-01T07:12:36.366Z,98.05
2022-12-01T07:15:39.133Z,97.65
2022-12-01T07:18:41.447Z,97.21
2022-12-01T07:21:43.693Z,96.95
2022-12-01T07:24:45.807Z,96.35
2022-12-01T07:27:48.054Z,95.97
2022-12-01T07:30:50.132Z,96.31
2022-12-01T07:33:52.805Z,96.01
2022-12-01T07:36:54.860Z,95.64
2022-12-01T07:39:56.925Z,95.94
2022-12-01T07:42:58.954Z,95.23
2022-12-01T07:46:22.591Z,95.12
2022-12-01T07:49:25.852Z,94.64
2022-12-01T07:52:28.019Z,94.58
2022-12-01T07:55:30.115Z,94.39
2022-12-01T07:58:32.763Z,94.18
2022-12-01T08:01:34.851Z,93.89
2022-12-01T08:04:37.251Z,93.23
2022-12-01T08:07:39.483Z,92.79
2022-12-01T08:10:41.610Z,92.00
2022-12-01T08:13:44.179Z,91.08
2022-12-01T08:16:48.110Z,89.96
2022-12-01T08:19:50.582Z,89.46
2022-12-01T08:22:53.015Z,88.25
2022-12-01T08:25:55.274Z,86.94
2022-12-01T08:28:58.167Z,85.35
2022-12-01T08:32:00.234Z,85.06
2022-12-01T08:35:02.398Z,84.41
2022-12-01T08:38:05.159Z,83.43
2022-12-01T08:41:09.087Z,83.13
2022-12-01T08:44:11.488Z,83.17
2022-12-01T08:47:18.513Z,83.07
2022-12-01T08:50:20.825Z,83.06
2022-12-01T08:53:22.910Z,83.80
2022-12-01T08:56:26.499Z,83.35
2022-12-01T08:59:28.537Z,82.88
2022-12-01T09:02:30.890Z,82.54
2022-12-01T09:05:32.960Z,82.97
2022-12-01T09:08:36.994Z,81.77
2022-12-01T09:11:40.062Z,81.38
2022-12-01T09:14:48.403Z,81.66
2022-12-01T09:17:50.519Z,81.56
2022-12-01T09:20:52.907Z,81.11
2022-12-01T09:23:55.105Z,80.43
2022-12-01T09:26:58.665Z,80.77
2022-12-01T09:30:00.696Z,80.33
2022-12-01T09:33:02.822Z,79.77
2022-12-01T09:36:07.854Z,78.83
2022-12-01T09:39:14.082Z,78.72
2022-12-01T09:42:18.798Z,78.54
2022-12-01T09:45:28.200Z,77.79
2022-12-01T09:48:42.909Z,78.06
2022-12-01T09:51:45.341Z,78.53
2022-12-01T09:54:48.309Z,78.46
2022-12-01T09:57:54.464Z,78.13
2022-12-01T10:00:57.852Z,78.19
2022-12-01T10:04:08.346Z,78.51
2022-12-01T10:07:31.845Z,78.84
2022-12-01T10:10:38.481Z,78.99
2022-12-01T10:13:43.653Z,79.00
2022-12-01T10:17:03.802Z,78.98
2022-12-01T10:20:33.592Z,79.22
2022-12-01T10:24:04.515Z,78.66
2022-12-01T10:27:38.635Z,78.84
2022-12-01T10:31:12.727Z,78.45
2022-12-01T10:34:18.346Z,79.17
2022-12-01T10:37:25.312Z,78.67
2022-12-01T10:40:28.322Z,79.02
2022-12-01T10:43:39.558Z,78.59
2022-12-01T10:46:52.987Z,77.97
2022-12-01T10:49:56.456Z,78.09
2022-12-01T10:52:58.492Z,77.94
2022-12-01T10:56:12.293Z,76.92
2022-12-01T10:59:25.805Z,76.04
2022-12-01T11:02:29.844Z,75.51
2022-12-01T11:05:38.185Z,76.09
2022-12-01T11:08:45.638Z,76.43
2022-12-01T11:11:56.183Z,75.44
2022-12-01T11:14:59.247Z,75.80
2022-12-01T11:18:06.979Z,74.83
2022-12-01T11:21:35.194Z,75.04
2022-12-01T11:24:42.505Z,73.18
2022-12-01T11:27:54.395Z,72.47
2022-12-01T11:31:02.795Z,71.24
2022-12-01T11:34:05.414Z,68.92
2022-12-01T11:37:15.968Z,70.51
2022-12-01T11:40:29.719Z,70.97
2022-12-01T11:43:31.789Z,71.32
2022-12-01T11:46:45.984Z,71.93
2022-12-01T11:49:55.185Z,71.74
2022-12-01T11:52:57.323Z,71.04
2022-12-01T11:56:18.993Z,71.27
2022-12-01T11:59:26.814Z,71.17
2022-12-01T12:03:19.534Z,72.12
2022-12-01T12:06:43.939Z,70.37
2022-12-01T12:10:04.365Z,70.96
2022-12-01T12:13:15.735Z,70.67
2022-12-01T12:16:25.333Z,70.06
2022-12-01T12:20:07.138Z,69.86
2022-12-01T12:23:45.409Z,71.38
2022-12-01T12:27:19.923Z,70.55
2022-12-01T12:30:26.718Z,70.80
2022-12-01T12:34:10.081Z,70.97
2022-12-01T12:37:31.595Z,71.25
2022-12-01T12:41:09.576Z,70.41
2022-12-01T12:44:41.525Z,70.85
2022-12-01T12:47:57.559Z,70.78
2022-12-01T12:51:13.445Z,71.58
2022-12-01T12:54:44.800Z,70.72
2022-12-01T12:57:55.543Z,70.82
2022-12-01T13:01:07.805Z,71.14
2022-12-01T13:04:16.805Z,72.11
2022-12-01T13:07:28.212Z,71.10
2022-12-01T13:10:50.895Z,71.65
2022-12-01T13:14:20.062Z,72.27
2022-12-01T13:17:37.274Z,72.51
2022-12-01T13:20:40.502Z,73.04
2022-12-01T13:23:44.216Z,73.93
2022-12-01T13:26:53.622Z,73.94
2022-12-01T13:29:56.515Z,74.61
2022-12-01T13:33:04.174Z,74.21
2022-12-01T13:36:44.991Z,73.93
2022-12-01T13:39:39.423Z,74.73
2022-12-01T13:42:41.793Z,75.05
2022-12-01T13:45:43.938Z,75.17
2022-12-01T13:48:46.006Z,75.06
2022-12-01T13:52:15.724Z,75.07
2022-12-01T13:55:27.169Z,75.67
2022-12-01T13:58:35.280Z,75.93
2022-12-01T14:01:44.311Z,76.07
2022-12-01T14:04:46.544Z,76.15
2022-12-01T14:07:51.048Z,76.37
2022-12-01T14:10:57.236Z,76.75
2022-12-01T14:14:03.786Z,76.96
2022-12-01T14:17:06.748Z,77.21
2022-12-01T14:20:14.926Z,77.02
2022-12-01T14:23:29.271Z,77.49
2022-12-01T14:26:31.919Z,77.37
2022-12-01T14:29:44.645Z,77.44
2022-12-01T14:32:46.758Z,77.75
2022-12-01T14:35:48.926Z,78.40
2022-12-01T14:38:55.454Z,78.49
2022-12-01T14:42:42.308Z,78.63
2022-12-01T14:46:04.793Z,78.87
2022-12-01T14:49:13.111Z,79.39
2022-12-01T14:52:34.923Z,79.42
2022-12-01T14:55:43.520Z,79.24
2022-12-01T14:59:00.087Z,79.70
2022-12-01T15:02:09.751Z,79.77
2022-12-01T15:05:15.913Z,80.14
2022-12-01T15:11:53.687Z,80.25
2022-12-01T15:14:55.896Z,80.39
2022-12-01T15:18:01.875Z,80.58
2022-12-01T15:21:10.080Z,80.50
2022-12-01T15:24:23.904Z,81.05
2022-12-01T15:27:31.719Z,81.25
2022-12-01T15:30:33.934Z,81.46
2022-12-01T15:33:39.207Z,81.72
2022-12-01T15:36:41.944Z,81.99
2022-12-01T15:39:47.548Z,82.61
2022-12-01T15:43:16.907Z,82.51
2022-12-01T15:46:19.778Z,83.19
2022-12-01T15:49:33.448Z,83.41
2022-12-01T15:52:45.158Z,83.34
2022-12-01T15:55:52.939Z,83.51
2022-12-01T15:59:17.090Z,83.50
2022-12-01T16:02:25.410Z,83.93
2022-12-01T16:05:33.709Z,84.16
2022-12-01T16:08:36.070Z,84.46
2022-12-01T16:11:38.271Z,84.24
2022-12-01T16:15:01.784Z,84.66
2022-12-01T16:18:28.881Z,84.71
2022-12-01T16:21:56.198Z,85.00
2022-12-01T16:24:58.570Z,85.29
2022-12-01T16:28:02.151Z,85.54
2022-12-01T16:31:08.297Z,85.53
2022-12-01T16:34:43.995Z,85.79
2022-12-01T16:37:40.041Z,86.21
2022-12-01T16:40:43.873Z,86.47
2022-12-01T16:44:05.717Z,86.66
2022-12-01T16:47:23.968Z,86.89
2022-12-01T16:50:26.157Z,86.87
2022-12-01T16:53:28.706Z,87.39
2022-12-01T16:56:31.205Z,87.88
2022-12-01T16:59:33.716Z,87.69
2022-12-01T17:02:36.593Z,87.66
2022-12-01T17:05:40.776Z,88.37
2022-12-01T17:08:43.087Z,88.76
2022-12-01T17:11:45.776Z,89.02
2022-12-01T17:14:48.777Z,88.76
2022-12-01T17:17:53.719Z,89.44
2022-12-01T17:21:00.568Z,89.53
2022-12-01T17:24:04.815Z,89.34
2022-12-01T17:27:07.913Z,89.65
2022-12-01T17:30:11.232Z,89.62
2022-12-01T17:33:14.013Z,89.76
2022-12-01T17:36:17.422Z,89.74
2022-12-01T17:39:20.343Z,90.18
2022-12-01T17:42:23.483Z,89.85
2022-12-01T17:45:25.687Z,90.00
2022-12-01T17:48:28.279Z,90.51
2022-12-01T17:51:30.496Z,90.35
2022-12-01T17:54:34.593Z,91.00
2022-12-01T17:57:37.064Z,90.82
2022-12-01T18:00:39.928Z,91.01
2022-12-01T18:03:43.221Z,91.05
2022-12-01T18:06:50.812Z,91.04
2022-12-01T18:09:56.432Z,91.48
2022-12-01T18:12:59.220Z,91.64
2022-12-01T18:16:07.901Z,91.85
2022-12-01T18:19:11.678Z,91.85
2022-12-01T18:22:16.435Z,92.40
2022-12-01T18:25:19.188Z,92.75
2022-12-01T18:28:22.843Z,92.36
2022-12-01T18:31:26.369Z,92.55
2022-12-01T18:34:32.708Z,92.88
2022-12-01T18:37:37.054Z,92.69
2022-12-01T18:40:40.816Z,93.10
2022-12-01T18:43:44.761Z,93.00
2022-12-01T18:46:47.787Z,92.84
2022-12-01T18:49:50.378Z,92.77
2022-12-01T18:52:55.025Z,92.89
2022-12-01T18:55:58.060Z,92.93
2022-12-01T18:59:07.093Z,93.04
2022-12-01T19:02:11.253Z,92.98
2022-12-01T19:05:14.359Z,93.45
2022-12-01T19:08:20.980Z,93.20
2022-12-01T19:11:24.868Z,93.21
2022-12-01T19:14:29.973Z,93.27
2022-12-01T19:17:33.277Z,93.33
2022-12-01T19:20:38.558Z,93.43
2022-12-01T19:23:43.908Z,93.53
2022-12-01T19:26:46.819Z,93.71
2022-12-01T19:29:50.299Z,93.49
2022-12-01T19:32:55.450Z,93.55
2022-12-01T19:35:58.574Z,93.49
2022-12-01T19:39:06.054Z,93.39
2022-12-01T19:42:12.509Z,93.86
2022-12-01T19:45:15.698Z,93.61
2022-12-01T19:48:19.539Z,93.72
2022-12-01T19:51:25.843Z,93.73
2022-12-01T19:54:29.578Z,93.68
2022-12-01T19:57:32.737Z,93.88
2022-12-01T20:00:35.929Z,93.74
2022-12-01T20:03:51.855Z,94.33
2022-12-01T20:06:54.919Z,94.09
2022-12-01T20:09:58.159Z,94.04
2022-12-01T20:13:01.506Z,94.00
2022-12-01T20:16:13.014Z,94.39
2022-12-01T20:19:21.220Z,94.34
2022-12-01T20:22:26.863Z,94.58
2022-12-01T20:25:30.209Z,94.32
2022-12-01T20:28:34.999Z,94.10
2022-12-01T20:31:41.008Z,94.41
2022-12-01T20:34:44.799Z,94.60
2022-12-01T20:37:47.916Z,94.92
2022-12-01T20:40:52.757Z,94.57
2022-12-01T20:43:55.621Z,94.71
2022-12-01T20:46:58.858Z,94.68
2022-12-01T20:50:01.868Z,94.54
2022-12-01T20:53:04.717Z,95.15
2022-12-01T20:56:12.076Z,94.87
2022-12-01T20:59:15.102Z,94.75
2022-12-01T21:02:18.146Z,95.09
2022-12-01T21:05:21.053Z,94.64
2022-12-01T21:08:23.436Z,94.63
2022-12-01T21:11:48.786Z,95.23
2022-12-01T21:15:13.509Z,94.97
2022-12-01T21:18:29.353Z,94.94
2022-12-01T21:21:37.463Z,95.20
2022-12-01T21:24:43.713Z,95.14
2022-12-01T21:27:47.352Z,95.41
2022-12-01T21:30:51.621Z,95.40
2022-12-01T21:33:54.555Z,95.76
2022-12-01T21:37:02.273Z,95.72
2022-12-01T21:40:23.855Z,96.02
2022-12-01T21:43:26.231Z,95.88
2022-12-01T21:46:28.537Z,95.84
2022-12-01T21:49:39.755Z,96.20
2022-12-01T21:52:44.839Z,96.39
2022-12-01T21:55:48.139Z,96.45
2022-12-01T21:58:51.103Z,96.44
2022-12-01T22:01:57.492Z,96.39
2022-12-01T22:05:00.220Z,96.43
2022-12-01T22:08:24.824Z,96.70
2022-12-01T22:11:28.984Z,96.61
2022-12-01T22:14:35.532Z,97.01
2022-12-01T22:17:37.950Z,96.85
2022-12-01T22:20:40.021Z,96.97
2022-12-01T22:23:42.016Z,96.77
2022-12-01T22:26:56.715Z,97.02
2022-12-01T22:30:20.888Z,97.16
2022-12-01T22:33:28.600Z,97.01
2022-12-01T22:36:32.297Z,97.09
2022-12-01T22:39:34.393Z,97.15
2022-12-01T22:42:36.712Z,97.30
2022-12-01T22:45:39.282Z,97.21
2022-12-01T22:48:44.626Z,97.14
2022-12-01T22:51:50.933Z,97.14
2022-12-01T22:54:53.256Z,97.21
2022-12-01T22:57:55.376Z,97.36
2022-12-01T23:01:20.177Z,97.38
2022-12-01T23:04:31.342Z,97.50
2022-12-01T23:07:36.695Z,97.59
2022-12-01T23:10:40.910Z,97.61
2022-12-01T23:13:42.940Z,97.71
2022-12-01T23:16:45.178Z,97.80
2022-12-01T23:19:48.718Z,97.80
2022-12-01T23:22:55.015Z,97.76
2022-12-01T23:25:57.471Z,97.72
2022-12-01T23:29:00.769Z,97.88
2022-12-01T23:32:02.913Z,97.65
2022-12-01T23:35:07.218Z,97.77
2022-12-01T23:38:19.660Z,97.77
2022-12-01T23:41:36.616Z,98.02
2022-12-01T23:44:45.785Z,98.19
2022-12-01T23:47:48.097Z,97.87
2022-12-01T23:50:53.033Z,97.83
2022-12-01T23:53:56.986Z,97.91
2022-12-01T23:57:03.185Z,97.88
